Time;durP1;ratioP1;P1;durP2;ratioP2;P2;SDS_P1;SDS_P2;PMS_P1;PMS_P2;Temp;Humidity;BMP_temperature;BMP_pressure;BME280_temperature;BME280_humidity;BME280_pressure;Samples;Min_cycle;Max_cycle;Signal;HPM_P1;HPM_P2
2021/08/25 00:01:26;;;;;;;10.18;8.10;;;;;;;;;;5075429;28;20033;-78
2021/08/25 00:03:52;;;;;;;10.30;8.43;;;;;;;;;;5075756;28;20055;-78
2021/08/25 00:06:18;;;;;;;10.48;8.13;;;;;;;;;;5075378;28;20032;-78
2021/08/25 00:08:44;;;;;;;10.80;8.07;;;;;;;;;;5074511;28;20100;-78
2021/08/25 00:11:10;;;;;;;12.80;8.43;;;;;;;;;;5074274;28;20059;-78
2021/08/25 00:13:36;;;;;;;13.82;8.93;;;;;;;;;;5073748;28;20400;-78
2021/08/25 00:16:03;;;;;;;10.98;8.75;;;;;;;;;;5074163;28;20115;-78
2021/08/25 00:18:29;;;;;;;9.75;8.43;;;;;;;;;;5074353;28;20032;-78
2021/08/25 00:20:55;;;;;;;12.52;8.77;;;;;;;;;;5074226;28;20059;-78
2021/08/25 00:23:21;;;;;;;10.48;9.05;;;;;;;;;;5074713;28;20093;-78
2021/08/25 00:25:47;;;;;;;10.15;8.85;;;;;;;;;;5072595;28;20489;-78
2021/08/25 00:28:13;;;;;;;11.02;9.30;;;;;;;;;;5073067;28;20025;-78
2021/08/25 00:30:39;;;;;;;13.30;9.30;;;;;;;;;;5074079;28;20048;-78
2021/08/25 00:33:05;;;;;;;12.70;9.82;;;;;;;;;;5074638;28;20025;-77
2021/08/25 00:35:31;;;;;;;11.00;8.70;;;;;;;;;;5075067;28;20028;-78
2021/08/25 00:37:57;;;;;;;14.50;9.60;;;;;;;;;;5073925;28;20112;-78
2021/08/25 00:40:23;;;;;;;10.13;8.75;;;;;;;;;;5073686;28;20109;-78
2021/08/25 00:42:49;;;;;;;10.45;8.73;;;;;;;;;;5079954;28;20043;-77
2021/08/25 00:45:15;;;;;;;13.05;10.00;;;;;;;;;;5081093;28;20020;-77
2021/08/25 00:47:42;;;;;;;12.05;9.77;;;;;;;;;;5081054;28;20028;-77
2021/08/25 00:50:09;;;;;;;12.73;10.00;;;;;;;;;;5079116;28;20119;-76
2021/08/25 00:52:42;;;;;;;11.70;10.20;;;;;;;;;;5075466;28;20037;-78
2021/08/25 00:55:11;;;;;;;16.58;11.60;;;;;;;;;;5073773;28;20064;-77
2021/08/25 00:57:37;;;;;;;14.27;10.48;;;;;;;;;;5072476;28;20028;-78
2021/08/25 01:00:06;;;;;;;12.57;10.77;;;;;;;;;;5071843;28;20028;-78
2021/08/25 01:02:45;;;;;;;13.27;10.02;;;;;;;;;;5074144;28;20441;-78
2021/08/25 01:05:12;;;;;;;15.82;10.27;;;;;;;;;;5073349;28;20556;-78
2021/08/25 01:07:38;;;;;;;13.50;10.23;;;;;;;;;;5073795;28;20493;-78
2021/08/25 01:10:23;;;;;;;15.25;10.77;;;;;;;;;;5070522;28;20028;-78
2021/08/25 01:12:49;;;;;;;12.50;10.75;;;;;;;;;;5073201;28;20056;-77
2021/08/25 01:15:16;;;;;;;15.43;10.98;;;;;;;;;;5073093;28;20112;-77
2021/08/25 01:17:43;;;;;;;13.63;10.68;;;;;;;;;;5072769;28;20047;-77
2021/08/25 01:20:11;;;;;;;13.27;11.20;;;;;;;;;;5071813;28;20028;-78
2021/08/25 01:22:38;;;;;;;13.75;10.63;;;;;;;;;;5072760;28;20049;-78
2021/08/25 01:25:04;;;;;;;21.17;11.55;;;;;;;;;;5080717;28;20024;-77
2021/08/25 01:27:31;;;;;;;14.90;11.25;;;;;;;;;;5075050;28;20064;-77
2021/08/25 01:29:57;;;;;;;14.77;12.00;;;;;;;;;;5081335;28;20055;-77
2021/08/25 01:32:23;;;;;;;16.33;10.95;;;;;;;;;;5078506;28;20508;-77
2021/08/25 01:34:56;;;;;;;13.73;11.52;;;;;;;;;;5072897;28;20401;-78
2021/08/25 01:37:26;;;;;;;16.15;12.38;;;;;;;;;;5072808;28;20028;-78
2021/08/25 01:39:55;;;;;;;15.55;12.60;;;;;;;;;;5071739;28;20496;-78
2021/08/25 01:42:21;;;;;;;13.23;11.35;;;;;;;;;;5071595;28;20029;-77
2021/08/25 01:44:49;;;;;;;16.10;11.93;;;;;;;;;;5071347;28;20032;-77
2021/08/25 01:47:15;;;;;;;15.48;12.27;;;;;;;;;;5072993;28;20033;-78
2021/08/25 01:49:41;;;;;;;15.98;10.90;;;;;;;;;;5071277;28;20021;-77
2021/08/25 01:52:07;;;;;;;14.50;11.45;;;;;;;;;;5075096;28;20028;-77
2021/08/25 01:54:33;;;;;;;14.75;11.63;;;;;;;;;;5075676;28;20032;-78
2021/08/25 01:56:59;;;;;;;15.73;11.48;;;;;;;;;;5076463;28;20024;-77
2021/08/25 01:59:25;;;;;;;14.80;11.77;;;;;;;;;;5068742;28;20040;-78
2021/08/25 02:01:51;;;;;;;16.23;12.57;;;;;;;;;;5076359;28;20029;-78
2021/08/25 02:04:17;;;;;;;14.40;11.60;;;;;;;;;;5075990;28;20024;-77
2021/08/25 02:06:43;;;;;;;19.55;12.45;;;;;;;;;;5075885;28;20084;-78
2021/08/25 02:09:09;;;;;;;15.48;11.43;;;;;;;;;;5074685;28;20066;-77
2021/08/25 02:11:35;;;;;;;17.15;11.43;;;;;;;;;;5074690;28;20079;-77
2021/08/25 02:14:01;;;;;;;17.95;12.63;;;;;;;;;;5076095;28;20086;-77
2021/08/25 02:16:28;;;;;;;13.38;11.80;;;;;;;;;;5075653;28;20029;-77
2021/08/25 02:18:54;;;;;;;12.18;10.60;;;;;;;;;;5075199;28;20111;-77
2021/08/25 02:21:22;;;;;;;14.32;11.50;;;;;;;;;;5075174;28;20064;-78
2021/08/25 02:23:49;;;;;;;16.13;12.73;;;;;;;;;;5075787;28;20028;-78
2021/08/25 02:26:18;;;;;;;19.40;12.25;;;;;;;;;;5078795;28;20460;-77
2021/08/25 02:28:47;;;;;;;15.07;11.65;;;;;;;;;;5079640;28;20099;-76
2021/08/25 02:31:13;;;;;;;12.45;11.13;;;;;;;;;;5079245;28;20036;-77
2021/08/25 02:33:40;;;;;;;16.08;11.27;;;;;;;;;;5078154;28;20032;-77
2021/08/25 02:36:06;;;;;;;14.88;12.25;;;;;;;;;;5075543;28;20432;-78
2021/08/25 02:38:33;;;;;;;18.77;12.25;;;;;;;;;;5074250;28;20078;-77
2021/08/25 02:40:59;;;;;;;16.48;12.02;;;;;;;;;;5074628;28;20024;-78
2021/08/25 02:43:25;;;;;;;16.63;13.65;;;;;;;;;;5075761;28;20046;-78
2021/08/25 02:45:52;;;;;;;17.23;13.07;;;;;;;;;;5075402;28;20393;-78
2021/08/25 02:48:18;;;;;;;15.27;13.40;;;;;;;;;;5075574;28;20040;-78
2021/08/25 02:50:44;;;;;;;18.67;13.95;;;;;;;;;;5074722;28;20036;-78
2021/08/25 02:53:10;;;;;;;17.58;13.20;;;;;;;;;;5075420;28;20029;-77
2021/08/25 02:55:36;;;;;;;16.13;12.23;;;;;;;;;;5074870;28;20032;-78
2021/08/25 02:58:02;;;;;;;14.05;12.35;;;;;;;;;;5073781;28;20145;-78
2021/08/25 03:00:28;;;;;;;15.02;11.98;;;;;;;;;;5067604;28;20032;-77
2021/08/25 03:02:54;;;;;;;17.17;12.82;;;;;;;;;;5073417;28;20025;-77
2021/08/25 03:05:20;;;;;;;14.02;12.43;;;;;;;;;;5074714;28;20032;-78
2021/08/25 03:07:46;;;;;;;15.18;11.18;;;;;;;;;;5075227;28;20024;-77
2021/08/25 03:10:12;;;;;;;13.13;11.38;;;;;;;;;;5073576;28;20063;-77
2021/08/25 03:12:38;;;;;;;15.48;11.55;;;;;;;;;;5074660;28;20028;-77
2021/08/25 03:15:05;;;;;;;13.95;12.15;;;;;;;;;;5074306;28;20059;-77
2021/08/25 03:17:31;;;;;;;17.25;13.65;;;;;;;;;;5074874;28;20031;-78
2021/08/25 03:19:57;;;;;;;18.90;13.65;;;;;;;;;;5073684;28;20032;-77
2021/08/25 03:22:23;;;;;;;17.77;13.05;;;;;;;;;;5073872;28;20044;-77
2021/08/25 03:24:49;;;;;;;15.93;13.07;;;;;;;;;;5073853;28;20029;-77
2021/08/25 03:27:15;;;;;;;16.95;13.75;;;;;;;;;;5076061;28;20044;-78
2021/08/25 03:29:41;;;;;;;18.85;13.07;;;;;;;;;;5075523;28;20036;-78
2021/08/25 03:32:08;;;;;;;15.02;12.93;;;;;;;;;;5075428;28;20043;-78
2021/08/25 03:34:34;;;;;;;15.25;12.52;;;;;;;;;;5075209;28;20646;-77
2021/08/25 03:37:00;;;;;;;15.05;12.40;;;;;;;;;;5075069;28;20536;-78
2021/08/25 03:39:26;;;;;;;17.75;12.57;;;;;;;;;;5074691;28;20028;-78
2021/08/25 03:41:52;;;;;;;16.42;12.55;;;;;;;;;;5074998;28;20718;-78
2021/08/25 03:44:18;;;;;;;16.67;12.45;;;;;;;;;;5075898;28;20044;-78
2021/08/25 03:46:44;;;;;;;14.70;12.90;;;;;;;;;;5059919;28;20072;-78
2021/08/25 03:49:10;;;;;;;13.52;11.50;;;;;;;;;;5057920;28;20025;-78
2021/08/25 03:51:36;;;;;;;16.23;13.23;;;;;;;;;;5080765;28;20033;-77
2021/08/25 03:54:02;;;;;;;15.98;13.18;;;;;;;;;;5082267;28;20029;-78
2021/08/25 03:56:28;;;;;;;16.60;13.43;;;;;;;;;;5053285;28;20109;-78
2021/08/25 03:58:54;;;;;;;15.90;12.65;;;;;;;;;;5059240;28;20467;-77
2021/08/25 04:01:19;;;;;;;14.90;13.15;;;;;;;;;;5074186;28;20037;-78
2021/08/25 04:03:46;;;;;;;15.85;13.60;;;;;;;;;;5074489;28;20385;-78
2021/08/25 04:06:12;;;;;;;20.40;14.35;;;;;;;;;;5072482;28;20032;-78
2021/08/25 04:08:38;;;;;;;16.30;13.65;;;;;;;;;;5073654;28;20041;-77
2021/08/25 04:11:04;;;;;;;14.95;13.13;;;;;;;;;;5072707;28;20033;-78
2021/08/25 04:13:30;;;;;;;20.35;13.40;;;;;;;;;;5073883;28;20085;-78
2021/08/25 04:15:56;;;;;;;19.80;14.27;;;;;;;;;;5072440;28;20036;-77
2021/08/25 04:18:22;;;;;;;17.95;13.95;;;;;;;;;;5072921;28;20032;-78
2021/08/25 04:20:48;;;;;;;16.85;13.68;;;;;;;;;;5072845;28;20032;-77
2021/08/25 04:23:14;;;;;;;18.02;13.65;;;;;;;;;;5071992;28;20028;-78
2021/08/25 04:25:43;;;;;;;21.98;14.32;;;;;;;;;;5074197;28;20025;-78
2021/08/25 04:28:10;;;;;;;20.58;14.45;;;;;;;;;;5076380;28;20063;-78
2021/08/25 04:30:36;;;;;;;18.73;15.27;;;;;;;;;;5074620;28;20045;-78
2021/08/25 04:33:02;;;;;;;23.13;15.63;;;;;;;;;;5073114;28;20028;-77
2021/08/25 04:35:28;;;;;;;21.80;14.85;;;;;;;;;;5071528;28;20113;-78
2021/08/25 04:37:54;;;;;;;16.77;13.85;;;;;;;;;;5071716;28;20037;-78
2021/08/25 04:40:20;;;;;;;22.05;14.25;;;;;;;;;;5071806;28;20485;-78
2021/08/25 04:42:46;;;;;;;20.13;16.15;;;;;;;;;;5073417;28;20025;-78
2021/08/25 04:45:14;;;;;;;21.42;14.80;;;;;;;;;;5073538;28;20055;-78
2021/08/25 04:47:39;;;;;;;20.85;14.68;;;;;;;;;;5072234;28;20028;-78
2021/08/25 04:50:06;;;;;;;21.67;15.43;;;;;;;;;;5071992;28;20112;-78
2021/08/25 04:52:32;;;;;;;21.75;16.35;;;;;;;;;;5071747;28;20511;-78
2021/08/25 04:54:58;;;;;;;21.63;15.85;;;;;;;;;;5072754;28;20036;-78
2021/08/25 04:57:24;;;;;;;16.25;13.98;;;;;;;;;;5072833;28;20029;-78
2021/08/25 04:59:50;;;;;;;21.60;14.80;;;;;;;;;;5071986;28;20033;-77
2021/08/25 05:02:16;;;;;;;24.27;16.05;;;;;;;;;;5072807;28;20039;-78
2021/08/25 05:04:42;;;;;;;17.63;14.95;;;;;;;;;;5071547;28;20116;-78
2021/08/25 05:07:07;;;;;;;19.92;14.38;;;;;;;;;;5073136;28;20036;-78
2021/08/25 05:09:33;;;;;;;19.73;15.00;;;;;;;;;;5071639;28;20043;-77
2021/08/25 05:11:59;;;;;;;19.65;14.73;;;;;;;;;;5071445;28;20040;-78
2021/08/25 05:14:25;;;;;;;23.33;15.20;;;;;;;;;;5072972;28;20104;-78
2021/08/25 05:16:51;;;;;;;19.45;14.40;;;;;;;;;;5071832;28;20037;-77
2021/08/25 05:19:17;;;;;;;19.00;15.02;;;;;;;;;;5070393;28;20037;-79
2021/08/25 05:21:43;;;;;;;18.75;14.02;;;;;;;;;;5072647;28;20392;-78
2021/08/25 05:24:09;;;;;;;18.08;14.35;;;;;;;;;;5072023;28;20107;-78
2021/08/25 05:26:35;;;;;;;17.17;13.05;;;;;;;;;;5073623;28;20028;-78
2021/08/25 05:29:01;;;;;;;24.42;14.15;;;;;;;;;;5084489;28;20536;-78
2021/08/25 05:31:27;;;;;;;17.25;14.05;;;;;;;;;;5075394;28;20040;-78
2021/08/25 05:33:56;;;;;;;18.00;14.05;;;;;;;;;;5076896;28;20464;-78
2021/08/25 05:36:22;;;;;;;17.30;12.10;;;;;;;;;;5076122;28;20102;-79
2021/08/25 05:38:48;;;;;;;18.08;12.20;;;;;;;;;;5076034;28;20480;-78
2021/08/25 05:41:14;;;;;;;12.85;11.20;;;;;;;;;;5075942;28;20070;-78
2021/08/25 05:43:40;;;;;;;14.45;10.43;;;;;;;;;;5076372;28;20069;-79
2021/08/25 05:46:06;;;;;;;12.85;9.85;;;;;;;;;;5075147;28;20107;-79
2021/08/25 05:48:32;;;;;;;12.70;10.60;;;;;;;;;;5075010;28;20020;-79
2021/08/25 05:50:58;;;;;;;12.43;9.30;;;;;;;;;;5075699;28;20025;-78
2021/08/25 05:53:25;;;;;;;12.70;9.57;;;;;;;;;;5076029;28;20103;-78
2021/08/25 05:55:51;;;;;;;13.73;9.77;;;;;;;;;;5074490;28;20556;-79
2021/08/25 05:58:17;;;;;;;12.43;9.27;;;;;;;;;;5064551;28;20090;-78
2021/08/25 06:00:43;;;;;;;12.18;9.20;;;;;;;;;;5073096;28;20035;-78
2021/08/25 06:03:09;;;;;;;10.50;8.80;;;;;;;;;;5074212;28;20082;-79
2021/08/25 06:05:36;;;;;;;12.70;9.02;;;;;;;;;;5075864;28;20017;-78
2021/08/25 06:08:02;;;;;;;12.75;9.23;;;;;;;;;;5073239;28;20435;-78
2021/08/25 06:10:28;;;;;;;10.02;8.88;;;;;;;;;;5073604;28;20040;-79
2021/08/25 06:12:54;;;;;;;13.90;9.02;;;;;;;;;;5075519;28;20167;-79
2021/08/25 06:15:20;;;;;;;12.98;8.32;;;;;;;;;;5076610;28;20115;-80
2021/08/25 06:17:46;;;;;;;12.32;8.13;;;;;;;;;;5075346;28;20440;-80
2021/08/25 06:20:12;;;;;;;11.05;8.50;;;;;;;;;;5065392;28;20021;-81
2021/08/25 06:22:38;;;;;;;9.45;8.00;;;;;;;;;;5077126;28;20029;-79
2021/08/25 06:25:04;;;;;;;9.82;7.95;;;;;;;;;;5075324;28;20024;-80
2021/08/25 06:27:30;;;;;;;10.63;8.48;;;;;;;;;;5076438;28;20028;-78
2021/08/25 06:29:56;;;;;;;10.63;8.05;;;;;;;;;;5075337;28;20044;-81
2021/08/25 06:32:22;;;;;;;9.75;7.38;;;;;;;;;;5075771;28;20082;-79
2021/08/25 06:34:48;;;;;;;10.50;7.88;;;;;;;;;;5074432;28;20060;-79
2021/08/25 06:37:14;;;;;;;8.73;7.60;;;;;;;;;;5076113;28;20028;-78
2021/08/25 06:39:40;;;;;;;9.02;7.22;;;;;;;;;;5076742;28;20422;-78
2021/08/25 06:42:06;;;;;;;11.23;7.45;;;;;;;;;;5075291;28;20025;-79
2021/08/25 06:44:32;;;;;;;11.05;7.70;;;;;;;;;;5086018;28;20032;-79
2021/08/25 06:46:58;;;;;;;10.93;6.95;;;;;;;;;;5074405;28;20086;-79
2021/08/25 06:49:24;;;;;;;9.77;7.03;;;;;;;;;;5074859;28;20020;-79
2021/08/25 06:51:50;;;;;;;9.07;7.00;;;;;;;;;;5075104;28;20461;-79
2021/08/25 06:54:17;;;;;;;8.50;6.57;;;;;;;;;;5075296;28;20024;-79
2021/08/25 06:56:43;;;;;;;7.65;6.18;;;;;;;;;;5085964;28;20025;-79
2021/08/25 06:59:09;;;;;;;10.05;6.53;;;;;;;;;;5072090;28;20400;-78
2021/08/25 07:01:35;;;;;;;9.48;5.97;;;;;;;;;;5074906;28;20029;-77
2021/08/25 07:04:01;;;;;;;9.00;6.68;;;;;;;;;;5074301;28;20047;-78
2021/08/25 07:06:27;;;;;;;7.22;6.40;;;;;;;;;;5073976;28;20489;-78
2021/08/25 07:08:53;;;;;;;11.23;6.88;;;;;;;;;;5073062;28;20024;-77
2021/08/25 07:11:19;;;;;;;10.65;6.07;;;;;;;;;;5073545;28;20445;-78
2021/08/25 07:13:45;;;;;;;8.55;6.35;;;;;;;;;;5073782;28;20070;-76
2021/08/25 07:16:14;;;;;;;10.52;6.28;;;;;;;;;;5073357;28;20484;-75
2021/08/25 07:18:43;;;;;;;8.05;6.20;;;;;;;;;;5064979;28;20543;-76
2021/08/25 07:21:09;;;;;;;7.53;5.85;;;;;;;;;;5054426;28;20049;-75
2021/08/25 07:23:35;;;;;;;9.30;5.95;;;;;;;;;;5073120;28;20049;-76
2021/08/25 07:26:01;;;;;;;6.85;5.70;;;;;;;;;;5072732;28;20033;-75
2021/08/25 07:28:27;;;;;;;11.00;5.63;;;;;;;;;;5072752;28;20040;-75
2021/08/25 07:30:53;;;;;;;7.00;5.72;;;;;;;;;;5065924;28;20058;-74
2021/08/25 07:33:20;;;;;;;8.63;5.25;;;;;;;;;;5062151;28;20076;-75
2021/08/25 07:35:48;;;;;;;8.63;5.97;;;;;;;;;;5062163;28;20488;-76
2021/08/25 07:38:15;;;;;;;9.20;5.80;;;;;;;;;;5052828;28;20078;-76
2021/08/25 07:40:41;;;;;;;7.45;5.80;;;;;;;;;;5051918;28;20492;-76
2021/08/25 07:43:07;;;;;;;7.20;6.00;;;;;;;;;;5052840;28;20033;-76
2021/08/25 07:45:35;;;;;;;7.32;6.03;;;;;;;;;;5052752;28;20025;-76
2021/08/25 07:48:01;;;;;;;9.93;5.32;;;;;;;;;;5052625;28;20712;-75
2021/08/25 07:50:27;;;;;;;8.68;5.78;;;;;;;;;;5051723;28;20033;-76
2021/08/25 07:52:53;;;;;;;7.40;6.00;;;;;;;;;;5068759;28;20053;-76
2021/08/25 07:55:19;;;;;;;7.07;5.00;;;;;;;;;;5061977;28;20036;-76
2021/08/25 07:57:45;;;;;;;7.88;5.03;;;;;;;;;;5051767;28;20037;-76
2021/08/25 08:00:11;;;;;;;7.90;5.25;;;;;;;;;;5071608;28;20112;-76
2021/08/25 08:02:37;;;;;;;8.35;5.78;;;;;;;;;;5072545;28;20029;-75
2021/08/25 08:05:05;;;;;;;6.43;4.88;;;;;;;;;;5072643;28;20099;-75
2021/08/25 08:07:31;;;;;;;6.40;4.85;;;;;;;;;;5072860;28;20099;-75
2021/08/25 08:09:57;;;;;;;6.43;4.60;;;;;;;;;;5087197;28;20110;-75
2021/08/25 08:12:23;;;;;;;5.45;4.65;;;;;;;;;;5071825;28;20056;-75
2021/08/25 08:14:49;;;;;;;7.68;4.22;;;;;;;;;;5072208;28;20467;-74
2021/08/25 08:17:16;;;;;;;7.25;4.30;;;;;;;;;;5071910;28;20041;-75
2021/08/25 08:19:42;;;;;;;7.75;5.00;;;;;;;;;;5065275;28;20021;-75
2021/08/25 08:22:08;;;;;;;7.82;4.55;;;;;;;;;;5061853;28;20032;-76
2021/08/25 08:24:34;;;;;;;5.90;4.45;;;;;;;;;;5060630;28;20032;-75
2021/08/25 08:27:00;;;;;;;5.50;4.40;;;;;;;;;;5051761;28;20029;-75
2021/08/25 08:29:27;;;;;;;9.38;5.13;;;;;;;;;;5060986;28;20025;-76
2021/08/25 08:31:53;;;;;;;8.27;4.63;;;;;;;;;;5060962;28;20027;-75
2021/08/25 08:34:19;;;;;;;6.10;4.82;;;;;;;;;;5061670;28;20028;-74
2021/08/25 08:36:45;;;;;;;7.72;4.80;;;;;;;;;;5052583;28;20025;-75
2021/08/25 08:39:11;;;;;;;6.53;4.15;;;;;;;;;;5051161;28;20052;-74
2021/08/25 08:41:39;;;;;;;9.63;4.25;;;;;;;;;;5054289;28;20025;-75
2021/08/25 08:44:05;;;;;;;7.50;4.25;;;;;;;;;;5060340;28;20009;-76
2021/08/25 08:46:32;;;;;;;7.55;4.40;;;;;;;;;;5064151;28;20145;-75
2021/08/25 08:48:58;;;;;;;5.90;4.32;;;;;;;;;;5066214;28;20052;-75
2021/08/25 08:51:25;;;;;;;6.43;4.32;;;;;;;;;;5057005;28;20520;-75
2021/08/25 08:53:52;;;;;;;7.13;4.07;;;;;;;;;;5066756;28;20043;-75
2021/08/25 08:56:18;;;;;;;6.53;3.88;;;;;;;;;;5071472;28;20029;-74
2021/08/25 08:58:44;;;;;;;6.00;4.32;;;;;;;;;;5071569;28;20108;-75
2021/08/25 09:01:11;;;;;;;6.20;4.13;;;;;;;;;;5063756;28;20036;-75
2021/08/25 09:03:41;;;;;;;6.35;4.22;;;;;;;;;;5051468;28;20071;-76
2021/08/25 09:06:08;;;;;;;6.93;4.07;;;;;;;;;;5054995;28;20102;-75
2021/08/25 09:08:35;;;;;;;5.80;3.78;;;;;;;;;;5062680;28;20025;-76
2021/08/25 09:11:01;;;;;;;5.82;3.80;;;;;;;;;;5059894;28;20485;-75
2021/08/25 09:13:53;;;;;;;4.88;3.70;;;;;;;;;;5056960;28;20028;-75
2021/08/25 09:16:30;;;;;;;6.25;4.15;;;;;;;;;;5064058;28;20043;-77
2021/08/25 09:19:05;;;;;;;8.07;3.53;;;;;;;;;;5054394;28;20061;-77
2021/08/25 09:21:32;;;;;;;6.38;4.05;;;;;;;;;;5067274;28;20079;-78
2021/08/25 09:23:58;;;;;;;5.57;3.85;;;;;;;;;;5061354;28;20033;-77
2021/08/25 09:26:24;;;;;;;6.70;3.97;;;;;;;;;;5065323;28;20024;-78
2021/08/25 09:28:51;;;;;;;6.47;4.13;;;;;;;;;;5066210;28;20036;-78
2021/08/25 09:31:18;;;;;;;8.95;3.95;;;;;;;;;;5062841;28;20025;-78
2021/08/25 09:33:45;;;;;;;6.18;4.05;;;;;;;;;;5055034;28;20497;-79
2021/08/25 09:36:16;;;;;;;7.50;4.15;;;;;;;;;;5072809;28;20458;-79
2021/08/25 09:38:53;;;;;;;8.70;3.85;;;;;;;;;;5075917;28;20016;-78
2021/08/25 09:41:20;;;;;;;8.10;3.58;;;;;;;;;;5075088;28;20092;-77
2021/08/25 09:43:55;;;;;;;4.85;3.47;;;;;;;;;;5073429;28;20025;-78
2021/08/25 09:46:21;;;;;;;7.32;4.13;;;;;;;;;;5075605;28;20028;-78
2021/08/25 09:48:55;;;;;;;4.35;3.15;;;;;;;;;;5074954;28;20028;-75
2021/08/25 09:51:24;;;;;;;7.00;3.38;;;;;;;;;;5072660;28;20102;-78
2021/08/25 09:53:51;;;;;;;5.57;3.72;;;;;;;;;;5065233;28;20028;-78
2021/08/25 09:56:26;;;;;;;5.03;3.40;;;;;;;;;;5067903;28;20400;-77
2021/08/25 09:58:52;;;;;;;7.82;3.30;;;;;;;;;;5075164;28;20047;-75
2021/08/25 10:01:19;;;;;;;4.75;2.80;;;;;;;;;;5076386;28;20025;-78
2021/08/25 10:03:45;;;;;;;4.57;3.08;;;;;;;;;;5075239;28;20029;-78
2021/08/25 10:06:14;;;;;;;4.03;2.75;;;;;;;;;;5076087;28;20028;-78
2021/08/25 10:08:40;;;;;;;5.10;2.97;;;;;;;;;;5076130;28;20036;-77
2021/08/25 10:11:07;;;;;;;5.40;2.70;;;;;;;;;;5074721;28;20094;-77
2021/08/25 10:13:33;;;;;;;4.47;3.05;;;;;;;;;;5066478;28;20033;-78
2021/08/25 10:15:59;;;;;;;4.97;2.70;;;;;;;;;;5059445;28;20093;-78
2021/08/25 10:18:30;;;;;;;5.97;3.00;;;;;;;;;;5066371;28;20117;-79
2021/08/25 10:20:59;;;;;;;3.70;2.85;;;;;;;;;;5079864;28;20025;-78
2021/08/25 10:23:44;;;;;;;4.60;3.00;;;;;;;;;;5082503;28;20028;-79
2021/08/25 10:26:10;;;;;;;6.05;3.03;;;;;;;;;;5082442;28;20016;-82
2021/08/25 10:28:55;;;;;;;5.35;2.65;;;;;;;;;;5073087;28;20032;-80
2021/08/25 10:31:21;;;;;;;7.28;2.85;;;;;;;;;;5094436;28;20032;-78
2021/08/25 10:34:05;;;;;;;4.40;2.75;;;;;;;;;;5062953;28;20432;-78
2021/08/25 10:36:34;;;;;;;4.30;2.97;;;;;;;;;;5081111;28;20025;-80
2021/08/25 10:39:00;;;;;;;4.07;2.97;;;;;;;;;;5081411;28;20028;-79
2021/08/25 10:41:26;;;;;;;5.22;3.22;;;;;;;;;;5082267;28;20064;-80
2021/08/25 10:43:55;;;;;;;7.07;3.00;;;;;;;;;;5080505;28;20045;-78
2021/08/25 10:46:21;;;;;;;4.15;2.72;;;;;;;;;;5067976;28;20044;-79
2021/08/25 10:48:52;;;;;;;5.43;2.85;;;;;;;;;;5076187;28;20040;-76
2021/08/25 10:51:41;;;;;;;5.22;3.17;;;;;;;;;;5086383;28;20036;-79
2021/08/25 10:54:11;;;;;;;5.07;2.90;;;;;;;;;;5072338;28;20060;-81
2021/08/25 10:56:41;;;;;;;5.20;2.97;;;;;;;;;;5075632;28;20039;-82
2021/08/25 10:59:08;;;;;;;4.80;2.83;;;;;;;;;;5062873;28;20031;-82
2021/08/25 11:01:36;;;;;;;5.75;3.20;;;;;;;;;;5078750;28;20032;-83
2021/08/25 11:04:07;;;;;;;6.70;3.10;;;;;;;;;;5077471;28;20021;-81
2021/08/25 11:06:41;;;;;;;9.27;3.13;;;;;;;;;;5071089;28;20602;-84
2021/08/25 11:09:23;;;;;;;5.65;3.08;;;;;;;;;;5058826;28;20728;-83
2021/08/25 11:11:49;;;;;;;;;;;;;;;;;;5075894;28;20021;-82
2021/08/25 11:14:16;;;;;;;4.45;3.17;;;;;;;;;;5077230;28;20116;-83
2021/08/25 11:16:42;;;;;;;5.63;3.42;;;;;;;;;;5078718;28;20475;-81
2021/08/25 11:19:08;;;;;;;6.35;3.10;;;;;;;;;;5076523;28;20063;-80
2021/08/25 11:21:38;;;;;;;3.78;2.72;;;;;;;;;;5079623;28;20024;-80
2021/08/25 11:24:04;;;;;;;5.63;3.40;;;;;;;;;;5089231;28;20076;-81
2021/08/25 11:26:31;;;;;;;3.70;2.55;;;;;;;;;;5095096;28;20037;-79
2021/08/25 11:28:56;;;;;;;4.35;2.88;;;;;;;;;;5093183;28;20043;-79
2021/08/25 11:31:26;;;;;;;5.97;3.10;;;;;;;;;;5085634;28;20037;-80
2021/08/25 11:33:53;;;;;;;7.00;2.97;;;;;;;;;;5061613;28;20059;-81
2021/08/25 11:36:19;;;;;;;5.95;2.78;;;;;;;;;;5066881;28;20025;-81
2021/08/25 11:38:45;;;;;;;6.88;3.25;;;;;;;;;;5073232;28;20052;-83
2021/08/25 11:41:11;;;;;;;5.75;3.17;;;;;;;;;;5072838;28;20029;-81
2021/08/25 11:43:48;;;;;;;5.22;3.08;;;;;;;;;;5073356;28;20808;-81
2021/08/25 11:46:23;;;;;;;7.38;3.63;;;;;;;;;;5086455;28;20028;-78
2021/08/25 11:48:50;;;;;;;6.78;3.22;;;;;;;;;;5085923;28;20033;-79
2021/08/25 11:51:16;;;;;;;4.93;3.30;;;;;;;;;;5071458;28;20044;-79
2021/08/25 11:53:43;;;;;;;4.88;3.17;;;;;;;;;;5069801;28;20093;-81
2021/08/25 11:56:09;;;;;;;5.47;3.65;;;;;;;;;;5071356;28;20553;-81
2021/08/25 11:58:37;;;;;;;5.90;3.20;;;;;;;;;;5064272;28;20028;-81
2021/08/25 12:01:04;;;;;;;5.47;3.05;;;;;;;;;;5067379;28;20023;-80
2021/08/25 12:03:39;;;;;;;4.38;2.63;;;;;;;;;;5070263;28;20028;-80
2021/08/25 12:06:05;;;;;;;6.50;3.20;;;;;;;;;;5077800;28;20084;-81
2021/08/25 12:08:45;;;;;;;4.97;3.03;;;;;;;;;;5072328;28;20028;-81
2021/08/25 12:11:12;;;;;;;7.97;3.78;;;;;;;;;;5065019;28;20021;-81
2021/08/25 12:13:39;;;;;;;5.57;3.35;;;;;;;;;;5064640;28;20028;-82
2021/08/25 12:16:11;;;;;;;4.28;2.83;;;;;;;;;;5065578;28;20516;-82
2021/08/25 12:18:53;;;;;;;5.53;3.47;;;;;;;;;;5063317;28;20013;-83
2021/08/25 12:21:19;;;;;;;5.25;3.00;;;;;;;;;;5062515;28;20493;-81
2021/08/25 12:23:58;;;;;;;5.90;3.30;;;;;;;;;;5064762;28;20029;-82
2021/08/25 12:26:24;;;;;;;9.13;3.45;;;;;;;;;;5081659;28;20075;-82
2021/08/25 12:28:50;;;;;;;4.15;2.63;;;;;;;;;;5064233;28;20039;-80
2021/08/25 12:31:16;;;;;;;8.15;3.05;;;;;;;;;;5079837;28;20075;-80
2021/08/25 12:33:54;;;;;;;5.45;3.65;;;;;;;;;;5065547;28;20413;-82
2021/08/25 12:36:23;;;;;;;5.18;3.28;;;;;;;;;;5062509;28;20016;-80
2021/08/25 12:38:50;;;;;;;4.88;3.10;;;;;;;;;;5069864;28;20035;-82
2021/08/25 12:41:17;;;;;;;5.35;3.20;;;;;;;;;;5063982;28;20400;-81
2021/08/25 12:43:43;;;;;;;4.57;3.25;;;;;;;;;;5066072;28;20028;-81
2021/08/25 12:46:09;;;;;;;4.75;3.03;;;;;;;;;;5063435;28;20108;-82
2021/08/25 12:48:35;;;;;;;5.32;3.42;;;;;;;;;;5062503;28;20502;-80
2021/08/25 12:51:01;;;;;;;6.45;3.30;;;;;;;;;;5069038;28;20090;-82
2021/08/25 12:53:27;;;;;;;8.00;3.95;;;;;;;;;;5067431;28;20032;-81
2021/08/25 12:55:53;;;;;;;6.00;3.45;;;;;;;;;;5063662;28;20033;-82
2021/08/25 12:58:19;;;;;;;5.70;3.40;;;;;;;;;;5074697;28;20091;-80
2021/08/25 13:00:45;;;;;;;12.57;3.60;;;;;;;;;;5067681;28;20024;-79
2021/08/25 13:03:11;;;;;;;5.88;3.67;;;;;;;;;;5075813;28;20038;-81
2021/08/25 13:05:37;;;;;;;5.28;3.47;;;;;;;;;;5065416;28;20076;-82
2021/08/25 13:08:03;;;;;;;5.03;3.50;;;;;;;;;;5062219;28;20151;-82
2021/08/25 13:10:29;;;;;;;5.32;3.75;;;;;;;;;;5066052;28;20033;-82
2021/08/25 13:12:55;;;;;;;8.35;3.22;;;;;;;;;;5071830;28;20070;-82
2021/08/25 13:15:21;;;;;;;7.95;3.80;;;;;;;;;;5074273;28;20028;-81
2021/08/25 13:17:47;;;;;;;6.90;3.70;;;;;;;;;;5062827;28;20093;-80
2021/08/25 13:20:13;;;;;;;6.93;3.58;;;;;;;;;;5058071;28;20057;-79
2021/08/25 13:22:39;;;;;;;8.40;4.05;;;;;;;;;;5064146;28;20021;-78
2021/08/25 13:25:06;;;;;;;5.65;4.00;;;;;;;;;;5071975;28;20031;-79
2021/08/25 13:27:32;;;;;;;7.03;3.58;;;;;;;;;;5064141;28;20104;-80
2021/08/25 13:29:58;;;;;;;6.95;4.15;;;;;;;;;;5070786;28;20056;-78
2021/08/25 13:32:24;;;;;;;6.45;3.88;;;;;;;;;;5067036;28;20077;-78
2021/08/25 13:34:50;;;;;;;6.32;3.70;;;;;;;;;;5061857;28;20021;-78
2021/08/25 13:37:16;;;;;;;5.78;3.90;;;;;;;;;;5055377;28;20056;-78
2021/08/25 13:39:42;;;;;;;8.05;4.13;;;;;;;;;;5054896;28;20021;-79
2021/08/25 13:42:08;;;;;;;7.43;3.53;;;;;;;;;;5069879;28;20035;-79
2021/08/25 13:44:35;;;;;;;7.00;4.50;;;;;;;;;;5068214;28;20056;-79
2021/08/25 13:47:01;;;;;;;7.47;4.13;;;18.10;99.90;;;;;;5066144;28;20021;-80
2021/08/25 13:49:27;;;;;;;6.15;4.00;;;;;;;;;;5067393;28;20108;-81
2021/08/25 13:51:53;;;;;;;5.88;3.97;;;;;;;;;;5067990;28;20029;-80
2021/08/25 13:54:19;;;;;;;5.55;4.20;;;;;;;;;;5057916;28;20036;-81
2021/08/25 13:56:45;;;;;;;8.85;4.57;;;;;;;;;;5069428;28;20064;-80
2021/08/25 13:59:11;;;;;;;7.68;4.35;;;;;;;;;;5074295;28;20036;-81
2021/08/25 14:01:37;;;;;;;4.60;3.70;;;;;;;;;;5064648;28;20021;-80
2021/08/25 14:04:04;;;;;;;6.20;3.90;;;;;;;;;;5069754;28;20035;-79
2021/08/25 14:06:30;;;;;;;7.60;4.38;;;;;;;;;;5064671;28;20060;-80
2021/08/25 14:08:56;;;;;;;6.05;4.65;;;;;;;;;;5068534;28;20020;-79
2021/08/25 14:11:22;;;;;;;7.65;4.10;;;;;;;;;;5072005;28;20468;-80
2021/08/25 14:13:49;;;;;;;8.70;3.95;;;;;;;;;;5062747;28;20723;-80
2021/08/25 14:16:15;;;;;;;5.78;4.10;;;;;;;;;;5071561;28;20493;-79
2021/08/25 14:18:43;;;;;;;6.00;4.20;;;;;;;;;;5055741;28;20039;-80
2021/08/25 14:21:09;;;;;;;5.70;3.97;;;;;;;;;;5065126;28;20044;-79
2021/08/25 14:23:35;;;;;;;6.80;4.05;;;;;;;;;;5074297;28;20016;-79
2021/08/25 14:26:01;;;;;;;5.50;4.15;;;;;;;;;;5068976;28;20021;-80
2021/08/25 14:28:27;;;;;;;6.22;4.20;;;;;;;;;;5066785;28;20028;-79
2021/08/25 14:30:54;;;;;;;7.07;3.92;;;;;;;;;;5063621;28;20033;-80